createdAt,value
2023-04-15T00:03:14.368Z,5.60
2023-04-15T00:08:16.225Z,5.70
2023-04-15T00:13:17.908Z,5.50
2023-04-15T00:18:20.510Z,5.40
2023-04-15T00:23:22.161Z,5.40
2023-04-15T00:28:23.813Z,5.30
2023-04-15T00:33:25.491Z,5.40
2023-04-15T00:38:27.071Z,5.40
2023-04-15T00:43:29.640Z,5.50
2023-04-15T00:48:31.605Z,5.40
2023-04-15T00:53:33.177Z,5.20
2023-04-15T00:58:34.840Z,5.20
2023-04-15T01:03:36.681Z,5.00
2023-04-15T01:08:38.337Z,5.00
2023-04-15T01:13:40.104Z,4.70
2023-04-15T01:18:41.656Z,5.00
2023-04-15T01:23:44.315Z,5.00
2023-04-15T01:28:46.945Z,5.00
2023-04-15T01:33:48.571Z,4.80
2023-04-15T01:38:50.882Z,4.70
2023-04-15T01:43:52.659Z,4.50
2023-04-15T01:48:54.209Z,4.50
2023-04-15T01:53:57.052Z,4.40
2023-04-15T01:58:58.910Z,4.40
2023-04-15T02:04:01.018Z,4.30
2023-04-15T02:09:04.255Z,4.40
2023-04-15T02:14:06.430Z,4.30
2023-04-15T02:19:08.982Z,4.30
2023-04-15T02:24:12.105Z,4.50
2023-04-15T02:29:13.686Z,4.30
2023-04-15T02:34:15.477Z,4.20
2023-04-15T02:39:18.630Z,4.20
2023-04-15T02:44:20.461Z,4.30
2023-04-15T02:49:22.962Z,4.40
2023-04-15T02:54:24.793Z,4.40
2023-04-15T02:59:26.330Z,4.50
2023-04-15T03:04:30.087Z,4.50
2023-04-15T03:09:32.201Z,4.40
2023-04-15T03:14:35.546Z,4.50
2023-04-15T03:19:37.249Z,4.50
2023-04-15T03:24:38.945Z,4.40
2023-04-15T03:29:40.517Z,4.40
2023-04-15T03:34:42.269Z,4.40
2023-04-15T03:39:43.831Z,4.30
2023-04-15T03:44:45.406Z,4.30
2023-04-15T03:49:47.019Z,4.30
2023-04-15T03:54:48.657Z,4.30
2023-04-15T03:59:50.255Z,4.00
2023-04-15T04:04:51.970Z,4.00
2023-04-15T04:09:53.655Z,4.10
2023-04-15T04:14:55.561Z,3.90
2023-04-15T04:19:57.188Z,4.00
2023-04-15T04:24:59.956Z,3.70
2023-04-15T04:30:01.951Z,3.90
2023-04-15T04:35:04.113Z,3.90
2023-04-15T04:40:06.042Z,3.50
2023-04-15T04:45:08.626Z,3.50
2023-04-15T04:50:10.625Z,3.70
2023-04-15T04:55:12.480Z,3.60
2023-04-15T05:00:14.770Z,3.60
2023-04-15T05:05:16.377Z,3.30
2023-04-15T05:10:18.245Z,3.40
2023-04-15T05:15:20.334Z,3.40
2023-04-15T05:20:21.924Z,3.40
2023-04-15T05:25:23.528Z,3.40
2023-04-15T05:30:25.122Z,3.60
2023-04-15T05:35:27.183Z,3.70
2023-04-15T05:40:28.840Z,3.80
2023-04-15T05:45:30.425Z,4.00
2023-04-15T05:50:31.987Z,4.20
2023-04-15T05:55:33.536Z,4.30
2023-04-15T06:00:35.131Z,4.60
2023-04-15T06:05:36.751Z,4.80
2023-04-15T06:10:38.403Z,4.90
2023-04-15T06:15:39.998Z,5.00
2023-04-15T06:32:04.696Z,5.40
2023-04-15T06:37:06.657Z,5.60
2023-04-15T06:42:09.250Z,5.70
2023-04-15T06:47:13.010Z,5.90
2023-04-15T06:52:14.777Z,6.20
2023-04-15T06:57:16.400Z,6.70
2023-04-15T07:02:18.535Z,7.00
2023-04-15T07:07:20.643Z,7.40
2023-04-15T07:12:22.288Z,7.70
2023-04-15T07:17:23.904Z,8.00
2023-04-15T07:22:26.153Z,8.30
2023-04-15T07:27:27.766Z,8.60
2023-04-15T07:32:29.413Z,8.80
2023-04-15T07:37:31.353Z,9.10
2023-04-15T07:42:34.083Z,9.10
2023-04-15T07:47:36.136Z,9.60
2023-04-15T07:52:41.271Z,9.80
2023-04-15T07:57:42.858Z,10.00
2023-04-15T08:02:44.708Z,10.40
2023-04-15T08:07:46.881Z,10.40
2023-04-15T08:12:49.559Z,10.80
2023-04-15T08:17:51.424Z,10.80
2023-04-15T08:22:53.762Z,11.10
2023-04-15T08:27:57.565Z,11.10
2023-04-15T08:32:59.305Z,11.10
2023-04-15T08:38:01.009Z,11.10
2023-04-15T08:43:03.524Z,11.50
2023-04-15T08:48:05.739Z,11.60
2023-04-15T08:53:09.456Z,11.70
2023-04-15T08:58:11.903Z,11.50
2023-04-15T09:03:13.755Z,11.80
2023-04-15T09:08:15.462Z,12.10
2023-04-15T09:13:18.171Z,12.50
2023-04-15T09:18:29.927Z,12.70
2023-04-15T09:23:32.786Z,12.80
2023-04-15T09:28:41.024Z,13.00
2023-04-15T09:33:54.275Z,13.20
2023-04-15T09:38:57.268Z,13.00
2023-04-15T09:44:00.072Z,13.10
2023-04-15T09:49:08.929Z,13.30
2023-04-15T09:54:10.556Z,13.20
2023-04-15T09:59:12.200Z,13.40
2023-04-15T10:04:14.139Z,13.20
2023-04-15T10:09:16.273Z,13.90
2023-04-15T10:14:19.060Z,14.10
2023-04-15T10:19:23.844Z,14.60
2023-04-15T10:24:25.617Z,14.40
2023-04-15T10:29:30.161Z,14.50
2023-04-15T10:34:32.507Z,14.40
2023-04-15T10:39:34.280Z,14.20
2023-04-15T10:44:37.864Z,14.40
2023-04-15T10:49:50.034Z,14.40
2023-04-15T10:55:12.949Z,14.80
2023-04-15T11:00:15.593Z,14.80
2023-04-15T11:05:17.694Z,15.30
2023-04-15T11:10:25.586Z,14.80
2023-04-15T11:15:40.459Z,14.90
2023-04-15T11:20:43.152Z,14.70
2023-04-15T11:25:44.955Z,14.70
2023-04-15T11:30:46.813Z,14.10
2023-04-15T11:35:48.552Z,14.10
2023-04-15T11:40:51.425Z,14.10
2023-04-15T11:45:54.504Z,13.70
2023-04-15T11:50:57.512Z,13.60
2023-04-15T11:55:59.126Z,13.40
2023-04-15T12:01:01.451Z,13.40
2023-04-15T12:06:03.052Z,13.40
2023-04-15T12:11:04.715Z,13.10
2023-04-15T12:16:07.409Z,13.30
2023-04-15T12:21:09.803Z,13.40
2023-04-15T12:26:11.530Z,13.20
2023-04-15T12:31:14.359Z,13.00
2023-04-15T12:36:16.842Z,12.80
2023-04-15T12:41:18.493Z,12.50
2023-04-15T12:46:20.350Z,12.40
2023-04-15T12:51:22.032Z,12.50
2023-04-15T12:56:23.921Z,12.50
2023-04-15T13:01:25.625Z,12.30
2023-04-15T13:06:27.302Z,12.20
2023-04-15T13:11:31.373Z,12.20
2023-04-15T13:16:33.830Z,12.10
2023-04-15T13:21:36.400Z,12.20
2023-04-15T13:26:38.254Z,12.30
2023-04-15T13:31:39.866Z,12.40
2023-04-15T13:36:41.693Z,12.30
2023-04-15T13:41:43.240Z,12.10
2023-04-15T13:46:44.794Z,12.00
2023-04-15T13:51:46.633Z,12.00
2023-04-15T13:56:48.494Z,11.90
2023-04-15T14:01:50.199Z,11.70
2023-04-15T14:06:51.917Z,11.80
2023-04-15T14:11:53.501Z,11.60
2023-04-15T14:16:56.389Z,11.60
2023-04-15T14:21:59.241Z,11.50
2023-04-15T14:27:02.105Z,11.60
2023-04-15T14:32:11.511Z,11.80
2023-04-15T14:37:14.071Z,11.80
2023-04-15T14:42:15.706Z,11.50
2023-04-15T14:47:17.493Z,11.30
2023-04-15T14:52:19.121Z,11.10
2023-04-15T14:57:20.737Z,11.10
2023-04-15T15:02:37.302Z,11.10
2023-04-15T15:07:40.784Z,11.00
2023-04-15T15:12:42.417Z,11.00
2023-04-15T15:17:44.091Z,10.90
2023-04-15T15:22:45.870Z,10.70
2023-04-15T15:27:47.758Z,10.80
2023-04-15T15:32:49.382Z,10.60
2023-04-15T15:37:51.148Z,10.50
2023-04-15T15:42:52.978Z,10.40
2023-04-15T15:47:54.660Z,10.40
2023-04-15T15:52:56.341Z,10.60
2023-04-15T15:57:57.919Z,10.50
2023-04-15T16:03:05.660Z,10.10
2023-04-15T16:08:08.167Z,10.30
2023-04-15T16:13:10.697Z,10.30
2023-04-15T16:18:12.268Z,10.20
2023-04-15T16:23:15.182Z,10.10
2023-04-15T16:28:26.252Z,10.10
2023-04-15T16:33:28.668Z,10.00
2023-04-15T16:38:30.542Z,10.10
2023-04-15T16:43:32.162Z,10.00
2023-04-15T16:48:33.745Z,9.90
2023-04-15T16:53:35.361Z,9.80
2023-04-15T16:58:39.341Z,9.60
2023-04-15T17:03:41.218Z,9.50
2023-04-15T17:08:43.817Z,9.50
2023-04-15T17:13:45.449Z,9.50
2023-04-15T17:18:47.476Z,9.50
2023-04-15T17:23:50.003Z,9.50
2023-04-15T17:28:51.734Z,9.50
2023-04-15T17:34:03.588Z,9.50
2023-04-15T17:39:11.905Z,9.50
2023-04-15T17:44:13.491Z,9.40
2023-04-15T17:49:15.142Z,9.30
2023-04-15T17:54:16.725Z,9.30
2023-04-15T17:59:18.363Z,9.30
2023-04-15T18:04:22.765Z,9.20
2023-04-15T18:09:26.868Z,9.30
2023-04-15T18:14:34.778Z,9.30
2023-04-15T18:19:36.807Z,9.50
2023-04-15T18:24:39.223Z,9.40
2023-04-15T18:29:41.350Z,9.30
2023-04-15T18:34:46.088Z,9.30
2023-04-15T18:39:47.780Z,9.20
2023-04-15T18:44:49.527Z,9.30
2023-04-15T18:49:52.265Z,9.20
2023-04-15T18:54:54.974Z,9.10
2023-04-15T18:59:56.678Z,8.80
2023-04-15T19:04:58.441Z,9.00
2023-04-15T19:10:00.244Z,8.90
2023-04-15T19:15:02.377Z,8.80
2023-04-15T19:20:04.145Z,8.90
2023-04-15T19:25:06.000Z,8.80
2023-04-15T19:30:08.051Z,8.70
2023-04-15T19:35:11.536Z,8.70
2023-04-15T19:40:15.878Z,8.70
2023-04-15T19:45:17.545Z,8.60
2023-04-15T19:50:24.605Z,8.50
2023-04-15T19:55:26.162Z,8.50
2023-04-15T20:00:35.096Z,8.60
2023-04-15T20:05:37.083Z,8.60
2023-04-15T20:10:38.736Z,8.70
2023-04-15T20:15:40.567Z,8.70
2023-04-15T20:20:42.377Z,8.70
2023-04-15T20:25:44.132Z,8.70
2023-04-15T20:30:45.947Z,8.60
2023-04-15T20:35:48.000Z,8.70
2023-04-15T20:40:49.904Z,8.70
2023-04-15T20:45:57.541Z,8.60
2023-04-15T20:50:59.288Z,8.50
2023-04-15T20:56:02.109Z,8.50
2023-04-15T21:01:03.919Z,8.40
2023-04-15T21:06:06.575Z,8.50
2023-04-15T21:11:10.637Z,8.50
2023-04-15T21:16:13.761Z,8.50
2023-04-15T21:21:18.359Z,8.40
2023-04-15T21:26:22.171Z,8.40
2023-04-15T21:31:23.836Z,8.40
2023-04-15T21:36:25.871Z,8.40
2023-04-15T21:41:27.818Z,8.40
2023-04-15T21:46:32.932Z,8.40
2023-04-15T21:51:37.166Z,8.40
2023-04-15T21:56:38.932Z,8.40
2023-04-15T22:01:41.638Z,8.30
2023-04-15T22:06:44.387Z,8.20
2023-04-15T22:11:47.302Z,8.20
2023-04-15T22:16:49.161Z,8.20
2023-04-15T22:21:51.657Z,8.20
2023-04-15T22:26:56.725Z,8.20
2023-04-15T22:32:00.462Z,8.20
2023-04-15T22:37:04.358Z,8.20
2023-04-15T22:42:06.348Z,8.20
2023-04-15T22:47:12.206Z,8.20
2023-04-15T22:52:23.326Z,8.20
2023-04-15T22:57:30.182Z,8.20
2023-04-15T23:02:36.907Z,8.20
2023-04-15T23:07:44.301Z,8.20
2023-04-15T23:12:50.369Z,8.10
2023-04-15T23:18:00.469Z,8.10
2023-04-15T23:23:04.490Z,8.10
2023-04-15T23:28:07.209Z,8.10
2023-04-15T23:33:11.963Z,8.10
2023-04-15T23:38:14.676Z,8.10
2023-04-15T23:43:19.513Z,8.00
2023-04-15T23:48:24.070Z,8.10
2023-04-15T23:53:29.765Z,8.00
2023-04-15T23:58:34.599Z,8.10
